createdAt,value
2017-12-14T00:00:37.743Z,95456.70
2017-12-14T00:03:04.226Z,95461.88
2017-12-14T00:05:30.739Z,95459.12
2017-12-14T00:07:57.147Z,95463.58
2017-12-14T00:13:26.607Z,95470.59
2017-12-14T00:15:52.822Z,95474.48
2017-12-14T00:18:19.287Z,95462.80
2017-12-14T00:20:46.297Z,95456.67
2017-12-14T00:23:12.652Z,95465.50
2017-12-14T00:25:39.006Z,95458.73
2017-12-14T00:28:05.242Z,95460.48
2017-12-14T00:30:31.640Z,95458.25
2017-12-14T00:32:57.800Z,95467.95
2017-12-14T00:35:25.229Z,95463.57
2017-12-14T00:37:51.596Z,95457.83
2017-12-14T00:40:18.014Z,95448.16
2017-12-14T00:42:44.649Z,95452.02
2017-12-14T00:45:10.918Z,95454.41
2017-12-14T00:47:37.582Z,95428.05
2017-12-14T00:50:04.073Z,95429.77
2017-12-14T00:52:30.485Z,95444.77
2017-12-14T00:54:57.107Z,95428.22
2017-12-14T00:57:23.463Z,95425.53
2017-12-14T00:59:49.651Z,95431.28
2017-12-14T01:02:15.687Z,95404.30
2017-12-14T01:04:41.770Z,95405.37
2017-12-14T01:07:07.866Z,95425.56
2017-12-14T01:09:33.975Z,95419.94
2017-12-14T01:12:00.057Z,95413.44
2017-12-14T01:14:26.099Z,95428.42
2017-12-14T01:16:52.104Z,95420.35
2017-12-14T01:19:18.262Z,95439.50
2017-12-14T01:21:44.361Z,95440.18
2017-12-14T01:24:10.532Z,95436.36
2017-12-14T01:26:36.822Z,95427.05
2017-12-14T01:29:02.867Z,95417.12
2017-12-14T01:31:28.900Z,95421.81
2017-12-14T01:33:55.026Z,95425.80
2017-12-14T01:36:21.090Z,95427.55
2017-12-14T01:38:47.477Z,95407.97
2017-12-14T01:41:13.661Z,95401.06
2017-12-14T01:43:39.694Z,95418.29
2017-12-14T01:46:05.899Z,95424.12
2017-12-14T01:48:31.999Z,95429.88
2017-12-14T01:50:58.195Z,95428.39
2017-12-14T01:53:24.344Z,95440.62
2017-12-14T01:55:50.544Z,95446.11
2017-12-14T01:58:16.571Z,95420.92
2017-12-14T02:00:47.558Z,95424.51
2017-12-14T02:03:14.349Z,95436.25
2017-12-14T02:05:40.501Z,95450.16
2017-12-14T02:08:06.658Z,95452.27
2017-12-14T02:10:32.732Z,95454.00
2017-12-14T02:12:58.863Z,95440.95
2017-12-14T02:15:25.019Z,95451.60
2017-12-14T02:17:51.113Z,95468.30
2017-12-14T02:20:17.353Z,95457.45
2017-12-14T02:22:43.467Z,95466.47
2017-12-14T02:25:09.525Z,95474.30
2017-12-14T02:27:35.587Z,95472.90
2017-12-14T02:30:01.909Z,95467.22
2017-12-14T02:32:27.995Z,95467.03
2017-12-14T02:34:54.168Z,95454.20
2017-12-14T02:37:20.258Z,95424.36
2017-12-14T02:39:46.288Z,95425.17
2017-12-14T02:42:12.383Z,95449.45
2017-12-14T02:44:38.483Z,95452.38
2017-12-14T02:47:04.629Z,95451.44
2017-12-14T02:49:30.895Z,95457.75
2017-12-14T02:51:56.979Z,95469.83
2017-12-14T02:54:23.030Z,95473.22
2017-12-14T02:56:49.174Z,95476.64
2017-12-14T02:59:15.354Z,95475.11
2017-12-14T03:01:41.578Z,95468.27
2017-12-14T03:04:07.888Z,95480.14
2017-12-14T03:06:34.092Z,95475.31
2017-12-14T03:09:00.179Z,95493.85
2017-12-14T03:11:26.284Z,95492.06
2017-12-14T03:13:52.398Z,95506.53
2017-12-14T03:16:18.447Z,95504.45
2017-12-14T03:18:44.556Z,95522.79
2017-12-14T03:21:10.609Z,95504.28
2017-12-14T03:23:36.711Z,95513.13
2017-12-14T03:26:02.931Z,95525.36
2017-12-14T03:28:29.069Z,95512.37
2017-12-14T03:30:55.225Z,95517.19
2017-12-14T03:33:21.385Z,95523.73
2017-12-14T03:35:47.428Z,95521.09
2017-12-14T03:38:13.537Z,95536.77
2017-12-14T03:40:39.564Z,95522.19
2017-12-14T03:43:05.685Z,95536.50
2017-12-14T03:45:31.743Z,95543.52
2017-12-14T03:47:57.828Z,95533.91
2017-12-14T03:50:24.119Z,95532.26
2017-12-14T03:52:50.251Z,95526.75
2017-12-14T03:55:16.377Z,95523.09
2017-12-14T03:57:42.489Z,95527.91
2017-12-14T04:00:08.701Z,95522.42
2017-12-14T04:02:34.851Z,95516.67
2017-12-14T04:05:00.961Z,95526.19
2017-12-14T04:07:27.086Z,95533.27
2017-12-14T04:09:53.223Z,95537.66
2017-12-14T04:12:19.394Z,95517.03
2017-12-14T04:14:45.522Z,95514.03
2017-12-14T04:17:11.669Z,95516.17
2017-12-14T04:19:37.827Z,95516.59
2017-12-14T04:22:04.046Z,95503.80
2017-12-14T04:24:30.251Z,95533.29
2017-12-14T04:26:56.406Z,95524.69
2017-12-14T04:29:22.517Z,95505.34
2017-12-14T04:31:48.634Z,95534.03
2017-12-14T04:34:14.868Z,95526.77
2017-12-14T04:36:41.166Z,95529.69
2017-12-14T04:39:07.230Z,95529.02
2017-12-14T04:41:33.310Z,95526.83
2017-12-14T04:43:59.444Z,95523.83
2017-12-14T04:46:25.532Z,95519.93
2017-12-14T04:48:51.740Z,95516.82
2017-12-14T04:51:17.838Z,95523.81
2017-12-14T04:53:43.966Z,95524.58
2017-12-14T04:56:10.137Z,95545.20
2017-12-14T04:58:36.232Z,95545.08
2017-12-14T05:01:02.502Z,95545.45
2017-12-14T05:03:28.580Z,95551.97
2017-12-14T05:05:54.819Z,95553.94
2017-12-14T05:08:21.050Z,95544.36
2017-12-14T05:10:47.198Z,95542.84
2017-12-14T05:13:13.336Z,95539.11
2017-12-14T05:15:39.528Z,95568.82
2017-12-14T05:18:05.911Z,95566.28
2017-12-14T05:20:32.180Z,95559.36
2017-12-14T05:22:58.313Z,95579.50
2017-12-14T05:25:24.449Z,95582.24
2017-12-14T05:27:50.643Z,95569.35
2017-12-14T05:30:16.761Z,95569.42
2017-12-14T05:32:42.806Z,95570.52
2017-12-14T05:35:08.983Z,95579.19
2017-12-14T05:37:35.119Z,95589.38
2017-12-14T05:40:01.197Z,95573.55
2017-12-14T05:42:27.363Z,95580.85
2017-12-14T05:44:53.531Z,95586.45
2017-12-14T05:47:19.781Z,95623.61
2017-12-14T05:49:46.162Z,95644.09
2017-12-14T05:52:12.228Z,95673.84
2017-12-14T05:54:38.323Z,95700.49
2017-12-14T05:57:04.461Z,95709.68
2017-12-14T05:59:30.590Z,95714.67
2017-12-14T06:01:56.756Z,95758.63
2017-12-14T06:04:22.957Z,95801.39
2017-12-14T06:06:49.058Z,95809.44
2017-12-14T06:09:15.222Z,95831.08
2017-12-14T06:11:41.343Z,95850.52
2017-12-14T06:14:07.812Z,95846.65
2017-12-14T06:16:33.918Z,95861.63
2017-12-14T06:18:59.967Z,95867.01
2017-12-14T06:21:26.055Z,95878.34
2017-12-14T06:23:52.202Z,95887.50
2017-12-14T06:26:18.281Z,95893.30
2017-12-14T06:28:44.332Z,95897.81
2017-12-14T06:31:10.451Z,95899.18
2017-12-14T06:33:36.640Z,95895.52
2017-12-14T06:36:02.747Z,95889.04
2017-12-14T06:38:28.840Z,95894.69
2017-12-14T06:40:54.884Z,95904.71
2017-12-14T06:43:20.963Z,95898.42
2017-12-14T06:45:47.192Z,95894.33
2017-12-14T06:48:13.343Z,95889.19
2017-12-14T06:50:39.432Z,95881.14
2017-12-14T06:53:05.711Z,95881.16
2017-12-14T06:55:31.793Z,95884.47
2017-12-14T06:57:57.899Z,95863.06
2017-12-14T07:00:24.411Z,95848.97
2017-12-14T07:05:53.042Z,95881.05
2017-12-14T07:08:19.136Z,95886.03
2017-12-14T07:10:47.276Z,95892.30
2017-12-14T07:13:14.235Z,95897.11
2017-12-14T07:15:40.861Z,95891.90
2017-12-14T07:18:07.428Z,95883.58
2017-12-14T07:20:34.535Z,95884.55
2017-12-14T07:23:01.790Z,95878.95
2017-12-14T07:25:28.566Z,95884.44
2017-12-14T07:27:55.263Z,95877.23
2017-12-14T07:30:22.072Z,95883.96
2017-12-14T07:32:49.292Z,95876.78
2017-12-14T07:35:16.050Z,95890.00
2017-12-14T07:37:42.634Z,95888.45
2017-12-14T07:40:09.313Z,95887.95
2017-12-14T07:42:48.922Z,95897.87
2017-12-14T07:48:29.554Z,95881.80
2017-12-14T07:50:56.246Z,95891.67
2017-12-14T07:53:22.763Z,95896.11
2017-12-14T07:55:49.330Z,95895.52
2017-12-14T07:58:16.220Z,95900.38
2017-12-14T08:00:42.903Z,95904.04
2017-12-14T08:03:10.039Z,95888.88
2017-12-14T08:05:36.769Z,95900.47
2017-12-14T08:08:03.466Z,95899.27
2017-12-14T08:10:30.068Z,95891.80
2017-12-14T08:12:56.505Z,95908.30
2017-12-14T08:15:23.099Z,95918.33
2017-12-14T08:17:49.549Z,95924.67
2017-12-14T08:20:16.185Z,95922.64
2017-12-14T08:22:43.023Z,95925.88
2017-12-14T08:25:10.550Z,95928.36
2017-12-14T08:27:37.101Z,95937.08
2017-12-14T08:30:03.664Z,95926.42
2017-12-14T08:32:30.419Z,95927.58
2017-12-14T08:34:57.043Z,95911.07
2017-12-14T08:37:23.451Z,95914.95
2017-12-14T08:39:49.846Z,95899.42
2017-12-14T08:42:16.220Z,95901.72
2017-12-14T08:44:42.680Z,95904.91
2017-12-14T08:47:09.548Z,95904.61
2017-12-14T08:49:35.974Z,95901.37
2017-12-14T08:52:02.396Z,95902.93
2017-12-14T08:54:28.900Z,95898.52
2017-12-14T08:56:55.201Z,95909.73
2017-12-14T08:59:21.653Z,95913.73
2017-12-14T09:01:48.116Z,95921.98
2017-12-14T09:04:14.329Z,95912.06
2017-12-14T09:06:40.642Z,95901.20
2017-12-14T09:09:07.168Z,95899.77
2017-12-14T09:11:33.524Z,95903.04
2017-12-14T09:14:00.692Z,95896.47
2017-12-14T09:16:27.172Z,95886.97
2017-12-14T09:18:53.815Z,95893.12
2017-12-14T09:21:20.093Z,95901.84
2017-12-14T09:23:46.679Z,95909.58
2017-12-14T09:26:13.093Z,95910.59
2017-12-14T09:28:39.477Z,95910.64
2017-12-14T09:31:05.868Z,95913.18
2017-12-14T09:33:32.277Z,95903.45
2017-12-14T09:35:58.999Z,95906.75
2017-12-14T09:38:25.293Z,95910.64
2017-12-14T09:40:51.673Z,95917.66
2017-12-14T09:43:18.061Z,95919.99
2017-12-14T09:45:44.431Z,95921.20
2017-12-14T09:48:10.800Z,95916.48
2017-12-14T09:50:37.203Z,95921.96
2017-12-14T09:53:03.647Z,95926.34
2017-12-14T09:55:30.541Z,95922.20
2017-12-14T09:57:56.813Z,95922.97
2017-12-14T10:00:23.267Z,95925.94
2017-12-14T10:02:50.052Z,95924.09
2017-12-14T10:05:16.477Z,95917.90
2017-12-14T10:07:42.763Z,95906.66
2017-12-14T10:10:09.017Z,95911.95
2017-12-14T10:12:35.954Z,95901.00
2017-12-14T10:15:02.314Z,95890.00
2017-12-14T10:17:28.859Z,95898.00
2017-12-14T10:19:55.328Z,95887.27
2017-12-14T10:22:21.845Z,95892.98
2017-12-14T10:24:48.136Z,95895.19
2017-12-14T10:27:14.514Z,95895.88
2017-12-14T10:29:41.188Z,95898.95
2017-12-14T10:32:07.419Z,95896.05
2017-12-14T10:34:33.740Z,95896.62
2017-12-14T10:37:00.343Z,95893.98
2017-12-14T10:39:26.662Z,95885.74
2017-12-14T10:41:52.950Z,95877.14
2017-12-14T10:44:19.817Z,95873.45
2017-12-14T10:46:46.232Z,95871.14
2017-12-14T10:49:12.881Z,95864.77
2017-12-14T10:51:39.841Z,95864.50
2017-12-14T10:54:06.179Z,95856.88
2017-12-14T10:56:32.575Z,95849.60
2017-12-14T10:58:58.918Z,95852.81
2017-12-14T11:01:30.238Z,95860.17
2017-12-14T11:03:56.793Z,95868.27
2017-12-14T11:06:23.371Z,95866.73
2017-12-14T11:08:49.803Z,95863.81
2017-12-14T11:11:16.317Z,95861.38
2017-12-14T11:13:42.780Z,95856.06
2017-12-14T11:16:09.244Z,95845.02
2017-12-14T11:18:35.382Z,95844.17
2017-12-14T11:21:02.141Z,95846.05
2017-12-14T11:23:28.563Z,95830.55
2017-12-14T11:25:54.862Z,95835.50
2017-12-14T11:28:21.595Z,95829.33
2017-12-14T11:30:47.785Z,95822.69
2017-12-14T11:33:14.514Z,95835.14
2017-12-14T11:35:41.978Z,95830.73
2017-12-14T11:38:08.618Z,95818.84
2017-12-14T11:40:35.073Z,95813.06
2017-12-14T11:43:01.318Z,95828.54
2017-12-14T11:45:27.757Z,95824.57
2017-12-14T11:47:55.155Z,95821.38
2017-12-14T11:50:21.521Z,95815.85
2017-12-14T11:52:47.784Z,95798.31
2017-12-14T11:55:14.623Z,95801.95
2017-12-14T11:57:41.324Z,95807.25
2017-12-14T12:00:07.826Z,95803.78
2017-12-14T12:02:34.132Z,95819.83
2017-12-14T12:05:00.650Z,95818.72
2017-12-14T12:07:28.258Z,95808.23
2017-12-14T12:09:54.894Z,95799.42
2017-12-14T12:12:21.314Z,95789.78
2017-12-14T12:14:47.918Z,95776.64
2017-12-14T12:17:14.340Z,95775.05
2017-12-14T12:19:40.921Z,95770.77
2017-12-14T12:22:08.569Z,95756.88
2017-12-14T12:24:34.943Z,95741.00
2017-12-14T12:27:01.361Z,95757.34
2017-12-14T12:29:27.837Z,95766.41
2017-12-14T12:31:54.224Z,95757.20
2017-12-14T12:34:20.596Z,95751.05
2017-12-14T12:36:46.905Z,95752.88
2017-12-14T12:39:14.119Z,95750.70
2017-12-14T12:41:40.514Z,95743.80
2017-12-14T12:44:06.927Z,95741.71
2017-12-14T12:46:34.005Z,95738.84
2017-12-14T12:49:00.384Z,95742.59
2017-12-14T12:51:26.761Z,95734.89
2017-12-14T12:53:53.307Z,95728.25
2017-12-14T12:56:19.773Z,95720.70
2017-12-14T12:58:46.121Z,95717.81
2017-12-14T13:01:12.452Z,95700.27
2017-12-14T13:03:38.743Z,95691.19
2017-12-14T13:06:05.071Z,95683.78
2017-12-14T13:08:31.434Z,95685.36
2017-12-14T13:10:57.790Z,95664.25
2017-12-14T13:13:24.104Z,95669.45
2017-12-14T13:15:50.561Z,95678.32
2017-12-14T13:18:16.875Z,95686.73
2017-12-14T13:20:44.247Z,95681.19
2017-12-14T13:23:10.532Z,95680.42
2017-12-14T13:25:36.884Z,95662.83
2017-12-14T13:28:03.007Z,95660.09
2017-12-14T13:30:29.294Z,95670.00
2017-12-14T13:32:55.548Z,95674.87
2017-12-14T13:35:22.654Z,95674.42
2017-12-14T13:37:49.740Z,95654.14
2017-12-14T13:40:16.052Z,95651.55
2017-12-14T13:42:42.271Z,95648.27
2017-12-14T13:45:08.550Z,95629.57
2017-12-14T13:47:34.676Z,95631.80
2017-12-14T13:50:00.925Z,95637.81
2017-12-14T13:52:27.175Z,95636.94
2017-12-14T13:54:53.677Z,95644.27
2017-12-14T13:57:19.780Z,95629.50
2017-12-14T13:59:45.945Z,95627.55
2017-12-14T14:02:12.290Z,95616.17
2017-12-14T14:04:38.405Z,95628.70
2017-12-14T14:07:04.779Z,95629.00
2017-12-14T14:09:30.905Z,95619.92
2017-12-14T14:11:57.330Z,95615.77
2017-12-14T14:14:23.504Z,95606.92
2017-12-14T14:16:50.002Z,95598.64
2017-12-14T14:22:08.721Z,95608.86
2017-12-14T14:24:34.829Z,95591.30
2017-12-14T14:27:01.619Z,95590.05
2017-12-14T14:29:27.883Z,95594.52
2017-12-14T14:31:54.219Z,95596.78
2017-12-14T14:34:20.567Z,95591.18
2017-12-14T14:36:47.611Z,95580.93
2017-12-14T14:39:13.827Z,95590.52
2017-12-14T14:41:39.978Z,95589.81
2017-12-14T14:44:06.203Z,95579.77
2017-12-14T14:46:32.417Z,95564.03
2017-12-14T14:48:58.684Z,95566.00
2017-12-14T14:51:24.934Z,95578.32
2017-12-14T14:53:51.011Z,95561.36
2017-12-14T14:56:17.265Z,95558.08
2017-12-14T14:58:43.520Z,95549.95
2017-12-14T15:01:09.616Z,95556.63
2017-12-14T15:03:35.904Z,95542.13
2017-12-14T15:06:02.096Z,95545.34
2017-12-14T15:08:28.490Z,95552.06
2017-12-14T15:10:54.714Z,95545.82
2017-12-14T15:13:20.817Z,95550.22
2017-12-14T15:15:48.709Z,95559.45
2017-12-14T15:18:14.878Z,95544.86
2017-12-14T15:20:41.818Z,95535.58
2017-12-14T15:23:07.986Z,95514.00
2017-12-14T15:25:34.003Z,95520.84
2017-12-14T15:28:00.496Z,95515.42
2017-12-14T15:30:27.137Z,95508.26
2017-12-14T15:32:53.654Z,95498.30
2017-12-14T15:35:19.866Z,95513.58
2017-12-14T15:37:46.232Z,95521.62
2017-12-14T15:40:12.522Z,95520.30
2017-12-14T15:42:38.838Z,95518.54
2017-12-14T15:45:04.985Z,95507.52
2017-12-14T15:47:31.313Z,95500.46
2017-12-14T15:49:58.453Z,95491.13
2017-12-14T15:52:24.675Z,95484.50
2017-12-14T15:54:51.261Z,95489.23
2017-12-14T15:57:17.355Z,95458.75
2017-12-14T15:59:43.453Z,95450.28
2017-12-14T16:02:09.680Z,95456.86
2017-12-14T16:04:35.805Z,95471.50
2017-12-14T16:07:02.430Z,95478.20
2017-12-14T16:09:28.704Z,95475.70
2017-12-14T16:11:54.774Z,95463.56
2017-12-14T16:14:20.842Z,95478.70
2017-12-14T16:16:47.070Z,95478.03
2017-12-14T16:19:13.601Z,95466.88
2017-12-14T16:21:39.618Z,95457.11
2017-12-14T16:24:05.663Z,95466.08
2017-12-14T16:26:31.912Z,95438.66
2017-12-14T16:28:58.128Z,95432.12
2017-12-14T16:31:24.269Z,95438.30
2017-12-14T16:33:50.367Z,95426.75
2017-12-14T16:36:16.445Z,95415.48
2017-12-14T16:38:44.633Z,95413.53
2017-12-14T16:41:10.787Z,95416.96
2017-12-14T16:43:37.007Z,95403.09
2017-12-14T16:46:03.488Z,95393.06
2017-12-14T16:48:29.806Z,95382.77
2017-12-14T16:50:55.889Z,95362.62
2017-12-14T16:53:22.736Z,95381.03
2017-12-14T16:55:48.821Z,95379.81
2017-12-14T16:58:14.959Z,95374.53
2017-12-14T17:00:41.089Z,95360.25
2017-12-14T17:03:12.542Z,95370.52
2017-12-14T17:05:38.728Z,95372.75
2017-12-14T17:08:04.855Z,95349.17
2017-12-14T17:10:31.014Z,95352.77
2017-12-14T17:12:58.265Z,95346.43
2017-12-14T17:15:24.425Z,95354.88
2017-12-14T17:17:51.144Z,95350.69
2017-12-14T17:20:17.342Z,95347.41
2017-12-14T17:22:43.751Z,95344.42
2017-12-14T17:25:09.929Z,95328.56
2017-12-14T17:27:36.103Z,95309.08
2017-12-14T17:30:02.430Z,95292.59
2017-12-14T17:32:28.528Z,95308.61
2017-12-14T17:34:54.911Z,95294.20
2017-12-14T17:37:21.081Z,95274.92
2017-12-14T17:39:47.236Z,95260.71
2017-12-14T17:42:13.710Z,95264.66
2017-12-14T17:44:39.791Z,95256.80
2017-12-14T17:47:05.998Z,95251.51
2017-12-14T17:49:32.382Z,95252.05
2017-12-14T17:51:58.512Z,95249.19
2017-12-14T17:54:24.737Z,95248.89
2017-12-14T17:56:51.171Z,95219.57
2017-12-14T17:59:17.461Z,95211.02
2017-12-14T18:01:43.653Z,95209.14
2017-12-14T18:04:09.767Z,95198.81
2017-12-14T18:06:36.062Z,95193.25
2017-12-14T18:09:02.339Z,95196.02
2017-12-14T18:11:28.413Z,95203.64
2017-12-14T18:13:54.699Z,95194.02
2017-12-14T18:16:20.740Z,95192.00
2017-12-14T18:18:46.815Z,95188.38
2017-12-14T18:21:13.102Z,95190.93
2017-12-14T18:23:39.331Z,95188.45
2017-12-14T18:26:06.025Z,95192.28
2017-12-14T18:28:32.166Z,95195.88
2017-12-14T18:31:00.820Z,95204.87
2017-12-14T18:33:27.056Z,95204.91
2017-12-14T18:35:54.094Z,95212.88
2017-12-14T18:38:20.113Z,95207.95
2017-12-14T18:40:53.255Z,95182.94
2017-12-14T18:43:19.639Z,95186.30
2017-12-14T18:45:45.770Z,95192.76
2017-12-14T18:48:12.097Z,95185.74
2017-12-14T18:50:45.225Z,95179.91
2017-12-14T18:53:11.384Z,95180.27
2017-12-14T18:55:37.678Z,95193.27
2017-12-14T18:58:04.154Z,95202.64
2017-12-14T19:00:30.752Z,95208.44
2017-12-14T19:02:56.876Z,95196.42
2017-12-14T19:05:23.103Z,95201.96
2017-12-14T19:07:49.235Z,95193.48
2017-12-14T19:10:15.541Z,95192.51
2017-12-14T19:12:41.934Z,95198.00
2017-12-14T19:15:08.177Z,95207.02
2017-12-14T19:17:34.481Z,95207.31
2017-12-14T19:20:00.712Z,95208.77
2017-12-14T19:22:26.897Z,95207.95
2017-12-14T19:24:53.140Z,95204.59
2017-12-14T19:27:19.309Z,95203.00
2017-12-14T19:29:45.347Z,95200.07
2017-12-14T19:32:11.503Z,95192.23
2017-12-14T19:34:37.628Z,95169.45
2017-12-14T19:37:03.723Z,95165.97
2017-12-14T19:39:29.765Z,95159.92
2017-12-14T19:41:55.818Z,95170.61
2017-12-14T19:44:21.978Z,95164.52
2017-12-14T19:46:48.024Z,95175.55
2017-12-14T19:49:14.103Z,95183.41
2017-12-14T19:51:40.280Z,95190.41
2017-12-14T19:54:06.403Z,95203.55
2017-12-14T19:56:32.509Z,95206.62
2017-12-14T19:58:58.564Z,95205.30
2017-12-14T20:01:24.848Z,95201.69
2017-12-14T20:03:51.054Z,95193.60
2017-12-14T20:06:17.415Z,95183.97
2017-12-14T20:08:43.965Z,95170.27
2017-12-14T20:11:12.135Z,95167.63
2017-12-14T20:13:38.410Z,95164.57
2017-12-14T20:16:05.548Z,95174.66
2017-12-14T20:18:32.244Z,95171.12
2017-12-14T20:20:58.276Z,95149.11
2017-12-14T20:23:24.438Z,95139.92
2017-12-14T20:25:50.531Z,95131.95
2017-12-14T20:28:16.713Z,95131.10
2017-12-14T20:30:42.866Z,95108.20
2017-12-14T20:33:09.383Z,95118.88
2017-12-14T20:35:35.555Z,95134.17
2017-12-14T20:38:01.531Z,95111.39
2017-12-14T20:40:27.583Z,95127.28
2017-12-14T20:42:53.720Z,95127.70
2017-12-14T20:45:19.884Z,95115.34
2017-12-14T20:47:46.043Z,95108.33
2017-12-14T20:50:12.159Z,95109.44
2017-12-14T20:52:38.220Z,95100.20
2017-12-14T20:55:04.379Z,95097.64
2017-12-14T20:57:31.291Z,95093.68
2017-12-14T20:59:57.373Z,95094.58
2017-12-14T21:02:23.397Z,95077.89
2017-12-14T21:04:49.529Z,95069.55
2017-12-14T21:07:15.591Z,95072.83
2017-12-14T21:09:42.841Z,95079.98
2017-12-14T21:12:08.941Z,95064.23
2017-12-14T21:14:36.008Z,95069.16
2017-12-14T21:17:02.115Z,95058.27
2017-12-14T21:19:28.227Z,95064.91
2017-12-14T21:21:54.267Z,95060.48
2017-12-14T21:24:20.321Z,95068.06
2017-12-14T21:26:46.526Z,95074.28
2017-12-14T21:29:12.575Z,95065.98
2017-12-14T21:31:38.815Z,95075.34
2017-12-14T21:34:04.932Z,95080.20
2017-12-14T21:36:31.055Z,95082.36
2017-12-14T21:38:57.246Z,95071.30
2017-12-14T21:41:23.290Z,95066.19
2017-12-14T21:43:49.517Z,95060.48
2017-12-14T21:46:15.584Z,95051.67
2017-12-14T21:48:41.722Z,95058.33
2017-12-14T21:51:07.885Z,95041.25
2017-12-14T21:53:33.995Z,95046.66
2017-12-14T21:56:00.172Z,95051.05
2017-12-14T21:58:26.854Z,95063.68
2017-12-14T22:00:53.148Z,95061.80
2017-12-14T22:03:19.250Z,95058.66
2017-12-14T22:05:45.339Z,95053.68
2017-12-14T22:08:12.450Z,95054.02
2017-12-14T22:10:38.551Z,95052.23
2017-12-14T22:13:04.774Z,95059.08
2017-12-14T22:15:30.851Z,95063.94
2017-12-14T22:17:56.936Z,95047.20
2017-12-14T22:20:23.001Z,95037.84
2017-12-14T22:22:49.290Z,95045.25
2017-12-14T22:25:15.332Z,95036.52
2017-12-14T22:27:41.519Z,95047.50
2017-12-14T22:30:07.643Z,95050.05
2017-12-14T22:32:33.782Z,95041.24
2017-12-14T22:35:00.157Z,95031.11
2017-12-14T22:37:26.258Z,95026.56
2017-12-14T22:39:52.260Z,95030.05
2017-12-14T22:42:18.416Z,95020.81
2017-12-14T22:44:44.644Z,95019.41
2017-12-14T22:47:10.684Z,95002.76
2017-12-14T22:49:36.851Z,95010.59
2017-12-14T22:52:02.912Z,95009.78
2017-12-14T22:54:29.083Z,95023.36
2017-12-14T22:56:55.159Z,95019.78
2017-12-14T22:59:21.252Z,95025.82
2017-12-14T23:01:47.458Z,95007.18
2017-12-14T23:04:13.480Z,94985.64
2017-12-14T23:06:39.700Z,94954.81
2017-12-14T23:09:05.763Z,94959.11
2017-12-14T23:11:31.946Z,94946.77
2017-12-14T23:13:58.099Z,94937.02
2017-12-14T23:16:24.268Z,94944.88
2017-12-14T23:18:50.378Z,94954.88
2017-12-14T23:21:16.572Z,94945.56
2017-12-14T23:23:42.631Z,94943.34
2017-12-14T23:26:08.676Z,94943.77
2017-12-14T23:28:34.773Z,94930.01
2017-12-14T23:31:00.900Z,94916.64
2017-12-14T23:33:27.081Z,94923.10
2017-12-14T23:35:53.168Z,94923.39
2017-12-14T23:38:19.245Z,94918.03
2017-12-14T23:40:45.361Z,94916.15
2017-12-14T23:43:11.458Z,94915.16
2017-12-14T23:45:37.515Z,94919.60
2017-12-14T23:48:03.635Z,94917.89
2017-12-14T23:50:30.071Z,94923.09
2017-12-14T23:52:56.227Z,94927.52
2017-12-14T23:55:22.343Z,94925.39
2017-12-14T23:57:48.462Z,94928.08
